Time;durP1;ratioP1;P1;durP2;ratioP2;P2;SDS_P1;SDS_P2;PMS_P1;PMS_P2;Temp;Humidity;BMP_temperature;BMP_pressure;BME280_temperature;BME280_humidity;BME280_pressure;Samples;Min_cycle;Max_cycle;Signal;HPM_P1;HPM_P2
2022/01/18 00:01:41;;;;;;;36.33;4.88;;;;;;;8.17;100.00;102708.31;8434834;28;20040;-64
2022/01/18 00:05:44;;;;;;;20.27;3.97;;;;;;;8.15;100.00;102710.19;8451693;28;20064;-64
2022/01/18 00:09:45;;;;;;;33.25;4.80;;;;;;;8.04;100.00;102714.28;8439535;28;20028;-65
2022/01/18 00:13:48;;;;;;;26.02;4.25;;;;;;;8.00;100.00;102712.63;8471358;28;20033;-64
2022/01/18 00:18:05;;;;;;;40.58;4.05;;;;;;;7.98;100.00;102725.31;8480238;28;20023;-64
2022/01/18 00:22:11;;;;;;;24.65;3.63;;;;;;;8.00;100.00;102717.19;8470009;28;20067;-64
2022/01/18 00:26:12;;;;;;;25.80;4.88;;;;;;;7.95;100.00;102722.78;8458974;28;20043;-64
2022/01/18 00:34:36;;;;;;;31.88;4.35;;;;;;;8.05;100.00;102728.59;8498462;28;20027;-64
2022/01/18 00:38:46;;;;;;;21.63;4.50;;;;;;;8.15;100.00;102726.34;8473223;27;20024;-64
2022/01/18 00:42:47;;;;;;;30.67;5.05;;;;;;;8.24;100.00;102725.97;8464977;27;20051;-64
2022/01/18 00:46:47;;;;;;;28.88;4.05;;;;;;;8.27;100.00;102736.59;8465268;28;20027;-64
2022/01/18 00:50:49;;;;;;;26.88;4.50;;;;;;;8.17;100.00;102736.09;8465646;28;20055;-64
2022/01/18 00:54:49;;;;;;;28.83;4.03;;;;;;;8.18;100.00;102742.38;8463011;28;20479;-64
2022/01/18 00:58:51;;;;;;;31.98;4.80;;;;;;;8.29;100.00;102740.97;8442937;28;20040;-64
2022/01/18 01:02:52;;;;;;;32.88;5.38;;;;;;;8.40;100.00;102738.66;8436956;28;20067;-64
2022/01/18 01:06:53;;;;;;;24.88;4.65;;;;;;;8.41;100.00;102734.13;8436584;28;20052;-64
2022/01/18 01:10:53;;;;;;;30.35;5.00;;;;;;;8.46;100.00;102742.88;8436460;28;20484;-64
2022/01/18 01:15:00;;;;;;;29.23;5.13;;;;;;;8.44;100.00;102750.16;8468161;28;20477;-64
2022/01/18 01:36:33;;;;;;;31.10;6.70;;;;;;;8.32;100.00;102756.13;8466194;27;20032;-64
2022/01/18 01:42:13;;;;;;;44.60;7.60;;;;;;;8.27;100.00;102753.66;8469653;27;20536;-64
2022/01/18 01:44:56;;;;;;;34.15;6.22;;;;;;;8.25;100.00;102760.03;8458818;27;20070;-64
2022/01/18 01:48:59;;;;;;;43.22;9.13;;;;;;;8.22;100.00;102755.69;8464135;28;20032;-64
2022/01/18 01:52:59;;;;;;;44.92;8.68;;;;;;;8.22;100.00;102749.38;8470010;28;20536;-64
2022/01/18 01:56:59;;;;;;;51.33;8.32;;;;;;;8.23;100.00;102761.94;8451491;28;20461;-65
2022/01/18 02:01:06;;;;;;;44.55;8.70;;;;;;;8.21;100.00;102774.56;8469775;28;20039;-64
2022/01/18 02:05:07;;;;;;;51.88;9.30;;;;;;;8.21;100.00;102769.19;8450136;28;20048;-65
2022/01/18 02:09:08;;;;;;;41.05;7.03;;;;;;;8.21;100.00;102763.81;8494684;27;20039;-64
2022/01/18 02:13:13;;;;;;;41.50;8.40;;;;;;;8.20;100.00;102762.06;8485370;27;20039;-64
2022/01/18 02:21:50;;;;;;;45.65;9.65;;;;;;;8.24;100.00;102763.69;8467725;28;20107;-64
2022/01/18 02:25:50;;;;;;;52.05;9.15;;;;;;;8.24;100.00;102758.31;8452463;28;20065;-65
2022/01/18 02:29:51;;;;;;;51.15;9.70;;;;;;;8.19;100.00;102747.69;8469094;28;20062;-64
2022/01/18 02:33:51;;;;;;;47.42;9.43;;;;;;;8.18;100.00;102753.16;8464921;28;20167;-64
2022/01/18 02:37:53;;;;;;;46.53;9.88;;;;;;;8.18;100.00;102755.84;8452726;28;20042;-64
2022/01/18 02:42:00;;;;;;;45.90;11.25;;;;;;;8.14;100.00;102747.03;8451184;28;20051;-64
2022/01/18 02:46:01;;;;;;;43.13;9.65;;;;;;;8.08;100.00;102750.88;8461178;28;20062;-64
2022/01/18 02:50:02;;;;;;;52.78;10.52;;;;;;;8.09;100.00;102754.47;8469587;28;20035;-64
2022/01/18 02:54:06;;;;;;;44.00;11.98;;;;;;;8.00;100.00;102760.28;8467721;28;20043;-64
2022/01/18 02:58:10;;;;;;;44.25;10.48;;;;;;;7.91;100.00;102750.81;8467485;28;20039;-64
2022/01/18 03:03:24;;;;;;;48.28;12.18;;;;;;;7.90;100.00;102740.09;8468353;28;20036;-64
2022/01/18 03:06:42;;;;;;;53.55;11.07;;;;;;;7.87;100.00;102741.09;8466626;28;20399;-64
2022/01/18 03:10:42;;;;;;;52.75;11.45;;;;;;;7.89;100.00;102735.63;8450057;28;20118;-64
2022/01/18 03:14:43;;;;;;;50.28;10.35;;;;;;;7.76;100.00;102746.09;8465449;28;20142;-64
2022/01/18 03:18:43;;;;;;;47.75;11.02;;;;;;;7.75;100.00;102744.31;8466857;28;20027;-64
2022/01/18 03:22:45;;;;;;;50.97;11.73;;;;;;;7.79;100.00;102750.47;8467653;28;20031;-64
2022/01/18 03:28:18;;;;;;;48.30;11.77;;;;;;;7.77;100.00;102746.94;8450171;28;20059;-65
2022/01/18 03:31:06;;;;;;;47.78;11.60;;;;;;;7.82;100.00;102751.22;8431429;28;20043;-64
2022/01/18 03:35:09;;;;;;;46.42;10.73;;;;;;;7.81;100.00;102754.81;8432063;28;20518;-64
2022/01/18 03:39:10;;;;;;;51.50;11.20;;;;;;;7.79;100.00;102756.72;8461579;28;20050;-64
2022/01/18 03:43:12;;;;;;;43.85;11.35;;;;;;;7.74;100.00;102753.34;8446208;28;20031;-64
2022/01/18 03:47:14;;;;;;;60.20;11.20;;;;;;;7.76;100.00;102762.25;8460790;28;20064;-64
2022/01/18 03:51:14;;;;;;;61.97;12.32;;;;;;;7.79;100.00;102759.44;8433909;28;20036;-64
2022/01/18 03:55:18;;;;;;;57.38;11.77;;;;;;;7.76;100.00;102754.19;8465129;28;20032;-64
2022/01/18 03:59:18;;;;;;;47.38;11.30;;;;;;;7.82;100.00;102761.97;8466416;28;20406;-64
2022/01/18 04:03:19;;;;;;;58.97;13.65;;;;;;;7.86;100.00;102757.31;8465943;28;20061;-64
2022/01/18 04:07:19;;;;;;;61.90;13.98;;;;;;;7.88;100.00;102767.09;8464742;28;20423;-64
2022/01/18 04:11:20;;;;;;;58.90;12.40;;;;;;;7.87;100.00;102765.31;8466274;28;20085;-64
2022/01/18 04:15:20;;;;;;;59.28;13.57;;;;;;;7.85;100.00;102778.00;8456793;28;20040;-64
2022/01/18 04:25:48;;;;;;;54.33;12.95;;;;;;;7.75;100.00;102765.88;8453236;28;20415;-64
2022/01/18 04:28:10;;;;;;;59.25;14.73;;;;;;;7.82;100.00;102778.13;8470164;28;20099;-64
2022/01/18 04:32:10;;;;;;;54.28;13.90;;;;;;;7.84;100.00;102775.38;8471461;28;20031;-64
2022/01/18 04:36:11;;;;;;;46.67;12.88;;;;;;;7.81;100.00;102770.97;8470322;28;20104;-64
2022/01/18 04:40:15;;;;;;;66.15;14.18;;;;;;;7.76;100.00;102767.63;8453400;28;20502;-64
2022/01/18 04:48:24;;;;;;;58.22;13.13;;;;;;;7.76;100.00;102759.56;8453027;28;20040;-64
2022/01/18 04:48:37;;;;;;;60.45;14.43;;;;;;;7.78;100.00;102765.72;8470199;27;20038;-64
2022/01/18 04:52:37;;;;;;;51.25;13.75;;;;;;;7.78;100.00;102763.03;8459644;28;20130;-64
2022/01/18 05:00:54;;;;;;;50.08;12.82;;;;;;;7.81;100.00;102765.59;8361147;27;20475;-63
2022/01/18 05:04:55;;;;;;;53.45;14.27;;;;;;;7.81;100.00;102772.81;8345706;28;20444;-64
2022/01/18 05:08:56;;;;;;;62.88;15.52;;;;;;;7.79;100.00;102780.97;8351693;28;20035;-63
2022/01/18 05:13:02;;;;;;;56.22;14.85;;;;;;;7.79;100.00;102775.59;8359155;28;20038;-63
2022/01/18 05:17:11;;;;;;;57.25;14.88;;;;;;;7.74;100.00;102785.66;8359854;28;20052;-63
2022/01/18 05:21:20;;;;;;;56.65;15.48;;;;;;;7.67;100.00;102778.81;8352341;28;20046;-63
2022/01/18 05:25:20;;;;;;;60.60;14.88;;;;;;;7.68;100.00;102774.28;8360986;28;20037;-63
2022/01/18 05:29:21;;;;;;;53.28;15.20;;;;;;;7.62;100.00;102769.16;8357077;28;20086;-64
2022/01/18 05:33:22;;;;;;;60.72;14.68;;;;;;;7.60;100.00;102771.91;8354177;28;20048;-63
2022/01/18 05:37:23;;;;;;;57.75;16.08;;;;;;;7.65;100.00;102775.28;8345886;28;20038;-64
2022/01/18 05:41:23;;;;;;;54.38;13.82;;;;;;;7.64;100.00;102767.28;8358361;28;20493;-63
2022/01/18 05:45:24;;;;;;;46.50;12.73;;;;;;;7.68;100.00;102779.66;8356704;28;20508;-63
2022/01/18 05:49:24;;;;;;;51.70;12.75;;;;;;;7.68;100.00;102774.28;8359786;28;20040;-63
2022/01/18 05:53:26;;;;;;;52.35;12.52;;;;;;;7.64;100.00;102776.25;8356210;28;20500;-64
2022/01/18 05:57:27;;;;;;;42.65;11.88;;;;;;;7.67;100.00;102778.81;8344517;28;20033;-64
2022/01/18 06:01:33;;;;;;;52.80;12.43;;;;;;;7.67;100.00;102778.81;8345939;28;20044;-64
2022/01/18 06:07:05;;;;;;;44.33;12.18;;;;;;;7.67;100.00;102792.28;8336648;28;20120;-64
2022/01/18 06:09:56;;;;;;;48.10;12.52;;;;;;;7.68;100.00;102794.00;8346494;28;20053;-64
2022/01/18 06:13:56;;;;;;;57.42;13.80;;;;;;;7.71;100.00;102799.25;8350580;28;20063;-64
2022/01/18 06:17:57;;;;;;;42.50;11.52;;;;;;;7.69;100.00;102803.81;8312497;28;20030;-64
2022/01/18 06:21:58;;;;;;;61.78;12.50;;;;;;;7.73;100.00;102808.16;8334818;28;20049;-64
2022/01/18 06:26:02;;;;;;;48.83;12.75;;;;;;;7.76;100.00;102805.34;8318333;28;20033;-64
2022/01/18 06:30:05;;;;;;;;;;;;;;;7.78;100.00;102803.44;8335482;28;20049;-64
2022/01/18 06:34:06;;;;;;;36.42;10.07;;;;;;;7.83;100.00;102809.50;8304317;28;20354;-63
2022/01/18 06:38:08;;;;;;;44.17;9.48;;;;;;;7.78;100.00;102810.66;8318605;28;20452;-64
2022/01/18 06:42:12;;;;;;;38.15;9.85;;;;;;;7.74;100.00;102812.59;8334278;28;20084;-64
2022/01/18 06:46:12;;;;;;;49.78;10.07;;;;;;;7.71;100.00;102810.03;8336826;28;20053;-64
2022/01/18 06:50:13;;;;;;;40.80;9.88;;;;;;;7.68;100.00;102810.16;8334894;28;20061;-64
2022/01/18 06:54:16;;;;;;;48.35;11.60;;;;;;;7.69;100.00;102819.97;8335692;28;20402;-64
2022/01/18 06:58:16;;;;;;;36.17;10.18;;;;;;;7.69;100.00;102813.75;8334716;28;20057;-64
2022/01/18 07:02:17;;;;;;;46.58;13.10;;;;;;;7.66;100.00;102812.03;8337435;28;20072;-64
2022/01/18 07:06:17;;;;;;;58.78;13.57;;;;;;;7.61;100.00;102811.38;8336563;28;20042;-64
2022/01/18 07:10:18;;;;;;;40.70;13.23;;;;;;;7.54;100.00;102826.00;8336636;28;20056;-64
2022/01/18 07:14:19;;;;;;;46.95;12.77;;;;;;;7.48;100.00;102826.28;8335667;28;20048;-64
2022/01/18 07:18:20;;;;;;;59.50;13.68;;;;;;;7.43;100.00;102822.94;8335830;28;20124;-64
2022/01/18 07:22:20;;;;;;;43.15;12.52;;;;;;;7.43;100.00;102827.41;8334060;28;20501;-64
2022/01/18 07:26:21;;;;;;;56.70;14.55;;;;;;;7.46;100.00;102820.09;8335581;28;20048;-65
2022/01/18 07:30:21;;;;;;;50.40;13.65;;;;;;;7.47;100.00;102834.41;8335403;28;20041;-65
2022/01/18 07:34:22;;;;;;;48.58;14.00;;;;;;;7.33;100.00;102831.44;8332962;28;20041;-65
2022/01/18 07:38:22;;;;;;;54.38;14.02;;;;;;;7.33;100.00;102831.44;8334085;28;20048;-65
2022/01/18 07:42:23;;;;;;;49.97;14.52;;;;;;;7.22;100.00;102825.63;8335526;28;20080;-65
2022/01/18 07:46:24;;;;;;;47.75;13.52;;;;;;;7.28;100.00;102828.94;8338250;28;20095;-65
2022/01/18 07:50:25;;;;;;;50.80;14.32;;;;;;;7.32;100.00;102833.25;8334460;28;20033;-65
2022/01/18 07:54:25;;;;;;;43.38;14.43;;;;;;;7.28;100.00;102833.44;8333483;28;20048;-65
2022/01/18 07:58:26;;;;;;;49.47;15.52;;;;;;;7.14;100.00;102831.31;8336860;28;20037;-65
2022/01/18 08:02:26;;;;;;;47.53;14.05;;;;;;;7.22;100.00;102839.94;8333816;28;20029;-65
2022/01/18 08:06:27;;;;;;;57.65;14.15;;;;;;;7.29;100.00;102849.50;8334453;28;20030;-65
2022/01/18 08:10:30;;;;;;;51.78;14.52;;;;;;;7.33;100.00;102853.84;8335628;28;20041;-65
2022/01/18 08:14:31;;;;;;;48.50;14.07;;;;;;;7.29;100.00;102862.97;8332552;28;20036;-65
2022/01/18 08:18:32;;;;;;;64.18;15.52;;;;;;;7.37;100.00;102852.78;8331844;28;20029;-65
2022/01/18 08:22:32;;;;;;;47.88;13.43;;;;;;;7.43;100.00;102865.97;8330822;28;20040;-65
2022/01/18 08:26:32;;;;;;;54.45;14.85;;;;;;;7.43;100.00;102865.97;8329319;28;20045;-65
2022/01/18 08:30:33;;;;;;;43.65;14.68;;;;;;;7.45;100.00;102864.13;8329000;28;20097;-65
2022/01/18 08:34:33;;;;;;;72.22;20.55;;;;;;;7.48;100.00;102863.97;8331902;28;20033;-65
2022/01/18 08:38:36;;;;;;;63.97;18.05;;;;;;;7.54;100.00;102877.16;8339750;28;20098;-65
2022/01/18 08:42:36;;;;;;;55.60;16.73;;;;;;;7.51;100.00;102869.22;8363788;28;20035;-65
2022/01/18 08:46:36;;;;;;;52.60;18.00;;;;;;;7.50;100.00;102867.47;8331585;28;20041;-65
2022/01/18 08:50:37;;;;;;;63.28;18.73;;;;;;;7.55;100.00;102868.16;8332224;28;20335;-65
2022/01/18 08:54:39;;;;;;;67.65;19.42;;;;;;;7.62;100.00;102866.97;8331437;28;20033;-65
2022/01/18 08:58:41;;;;;;;60.65;19.92;;;;;;;7.67;100.00;102869.47;8326669;28;20057;-65
2022/01/18 09:02:42;;;;;;;66.50;18.90;;;;;;;7.70;100.00;102875.59;8329435;28;20041;-65
2022/01/18 09:06:45;;;;;;;68.40;22.75;;;;;;;7.74;100.00;102865.56;8315629;28;20509;-65
2022/01/18 09:10:47;;;;;;;64.82;22.88;;;;;;;7.81;100.00;102862.53;8330934;28;20505;-65
2022/01/18 09:14:47;;;;;;;74.10;25.45;;;;;;;7.87;100.00;102877.59;8338876;28;20038;-65
2022/01/18 09:18:50;;;;;;;71.65;22.85;;;;;;;7.96;100.00;102875.34;8314753;28;20044;-65
2022/01/18 09:22:52;;;;;;;69.95;24.02;;;;;;;8.03;100.00;102879.50;8332398;28;20025;-65
2022/01/18 09:26:53;;;;;;;79.63;26.02;;;;;;;8.05;100.00;102883.03;8328746;28;20041;-65
2022/01/18 09:30:54;;;;;;;68.88;25.27;;;;;;;8.04;100.00;102886.69;8328952;28;20064;-65
2022/01/18 09:34:54;;;;;;;91.53;25.15;;;;;;;8.15;100.00;102882.63;8315313;28;20033;-65
2022/01/18 09:38:55;;;;;;;80.50;25.27;;;;;;;8.19;100.00;102889.63;8322241;28;20165;-65
2022/01/18 09:43:00;;;;;;;69.43;23.50;;;;;;;8.21;100.00;102887.75;8330285;28;20037;-65
2022/01/18 09:47:00;;;;;;;74.40;23.08;;;;;;;8.35;100.00;102897.00;8334258;28;20037;-65
2022/01/18 09:51:01;;;;;;;61.42;19.98;;;;;;;8.42;100.00;102892.22;8334783;28;20455;-65
2022/01/18 09:55:03;;;;;;;67.85;20.75;;;;;;;8.50;100.00;102895.44;8335483;28;20057;-65
2022/01/18 09:59:04;;;;;;;68.80;23.52;;;;;;;8.76;100.00;102889.75;8335092;28;20079;-65
2022/01/18 10:03:09;;;;;;;66.43;23.13;;;;;;;8.85;100.00;102889.31;8336636;28;20060;-65
2022/01/18 10:07:10;;;;;;;54.08;19.38;;;;;;;8.93;100.00;102884.41;8336138;28;20033;-65
2022/01/18 10:11:15;;;;;;;64.40;21.23;;;;;;;8.96;100.00;102897.75;8336783;28;20029;-65
2022/01/18 10:15:17;;;;;;;59.25;20.83;;;;;;;8.97;100.00;102894.13;8335417;28;20041;-65
2022/01/18 10:19:37;;;;;;;60.78;19.08;;;;;;;8.94;100.00;102896.97;8320463;28;20045;-65
2022/01/18 10:23:38;;;;;;;58.47;18.60;;;;;;;9.01;100.00;102893.91;8335668;28;20029;-65
2022/01/18 10:27:38;;;;;;;54.50;17.40;;;;;;;9.06;100.00;102902.66;8335488;28;20033;-65
2022/01/18 10:31:45;;;;;;;48.83;17.67;;;;;;;9.16;100.00;102901.28;8319251;28;20037;-65
2022/01/18 10:40:19;;;;;;;48.10;15.68;;;;;;;9.24;100.00;102890.13;8423606;27;20475;-64
2022/01/18 10:44:20;;;;;;;45.33;13.25;;;;;;;9.27;100.00;102884.56;8396984;28;20520;-64
2022/01/18 10:48:20;;;;;;;45.40;14.32;;;;;;;9.39;100.00;102883.94;8410649;28;20052;-64
2022/01/18 10:52:26;;;;;;;48.60;12.98;;;;;;;9.43;100.00;102874.78;8413190;28;20024;-64
2022/01/18 10:56:37;;;;;;;41.78;14.10;;;;;;;9.57;100.00;102864.13;8414810;28;20039;-64
2022/01/18 11:00:38;;;;;;;50.97;14.25;;;;;;;9.86;100.00;102858.16;8410657;28;20048;-64
2022/01/18 11:04:42;;;;;;;38.17;12.75;;;;;;;9.97;100.00;102861.16;8425241;28;20098;-64
2022/01/18 11:08:51;;;;;;;45.40;11.77;;;;;;;10.26;99.96;102860.53;8393029;28;20471;-64
2022/01/18 11:13:02;;;;;;;40.58;11.40;;;;;;;10.92;96.21;102854.16;8397276;28;20119;-64
2022/01/18 11:17:04;;;;;;;32.35;10.25;;;;;;;11.46;89.07;102848.28;8390490;28;20400;-64
2022/01/18 11:21:07;;;;;;;29.15;9.32;;;;;;;11.07;91.13;102853.28;8404824;28;20036;-64
2022/01/18 11:25:09;;;;;;;34.17;10.40;;;;;;;10.68;94.04;102844.72;8408716;28;20371;-64
2022/01/18 11:29:11;;;;;;;27.05;9.05;;;;;;;10.37;93.41;102839.19;8403501;28;20041;-64
2022/01/18 11:33:14;;;;;;;32.75;8.80;;;;;;;10.16;94.36;102840.38;8390564;28;20035;-64
2022/01/18 11:37:22;;;;;;;38.40;9.45;;;;;;;10.58;93.50;102838.03;8390988;28;20047;-64
2022/01/18 11:41:26;;;;;;;35.50;9.38;;;;;;;10.37;94.25;102850.00;8401835;28;20031;-64
2022/01/18 11:45:29;;;;;;;34.17;10.15;;;;;;;10.20;95.05;102841.94;8390239;28;20033;-64
2022/01/18 11:49:32;;;;;;;37.38;11.13;;;;;;;10.11;95.65;102842.44;8370482;28;20214;-64
2022/01/18 11:54:05;;;;;;;31.02;10.80;;;;;;;10.16;95.05;102839.47;8370061;28;20583;-64
2022/01/18 11:58:12;;;;;;;28.48;8.95;;;;;;;10.22;94.53;102834.63;8376566;28;20174;-64
2022/01/18 12:02:27;;;;;;;36.70;12.35;;;;;;;10.21;95.01;102826.59;8390124;28;20454;-64
2022/01/18 12:06:48;;;;;;;38.67;12.65;;;;;;;10.15;95.06;102827.78;8385339;28;20041;-64
2022/01/18 12:10:49;;;;;;;39.80;13.52;;;;;;;10.25;95.53;102810.13;8385981;28;20128;-64
2022/01/18 12:14:49;;;;;;;36.95;10.93;;;;;;;10.40;94.39;102805.72;8380187;28;20206;-64
2022/01/18 12:18:54;;;;;;;29.58;11.65;;;;;;;11.53;88.33;102803.63;8382264;28;20032;-64
2022/01/18 12:23:00;;;;;;;42.55;13.98;;;;;;;11.46;89.22;102804.94;8369127;28;20118;-64
2022/01/18 12:27:31;;;;;;;34.00;13.05;;;;;;;10.84;91.25;102802.31;8351684;28;20033;-65
2022/01/18 12:36:31;;;;;;;42.65;15.48;;;;;;;10.24;94.94;102800.25;8351160;27;20468;-64
2022/01/18 12:40:34;;;;;;;46.65;15.98;;;;;;;10.18;94.49;102784.38;8360930;28;20043;-64
2022/01/18 12:44:43;;;;;;;55.83;18.20;;;;;;;10.19;95.09;102791.53;8361140;28;20466;-64
2022/01/18 12:48:46;;;;;;;40.58;18.08;;;;;;;10.05;96.91;102783.25;8360760;28;20037;-64
2022/01/18 12:52:53;;;;;;;52.40;19.83;;;;;;;9.97;98.19;102780.06;8349025;28;20049;-64
2022/01/18 12:56:54;;;;;;;55.38;20.25;;;;;;;9.86;97.88;102782.50;8338369;28;20231;-64
2022/01/18 13:00:57;;;;;;;55.17;19.95;;;;;;;9.97;98.23;102769.28;8340667;28;20049;-65
2022/01/18 13:05:00;;;;;;;48.80;20.67;;;;;;;9.87;98.13;102773.41;8359830;28;20041;-65
2022/01/18 13:09:01;;;;;;;52.63;22.58;;;;;;;9.86;98.07;102771.69;8342384;28;20128;-65
2022/01/18 13:13:02;;;;;;;50.40;22.05;;;;;;;9.84;97.72;102762.78;8358837;28;20037;-65
2022/01/18 13:22:59;;;;;;;53.97;21.05;;;;;;;9.94;96.84;102758.63;8338490;28;20132;-65
2022/01/18 13:25:55;;;;;;;52.13;20.90;;;;;;;9.92;96.10;102756.00;8343793;28;20409;-65
2022/01/18 13:30:17;;;;;;;58.70;21.08;;;;;;;9.96;96.98;102740.50;8354175;28;20048;-65
2022/01/18 13:34:29;;;;;;;51.05;21.33;;;;;;;9.96;97.16;102745.91;8348070;28;20048;-65
2022/01/18 13:38:31;;;;;;;45.97;19.85;;;;;;;9.92;96.60;102744.34;8361000;28;20106;-65
2022/01/18 13:42:35;;;;;;;59.55;21.67;;;;;;;10.07;97.04;102739.97;8345233;28;20053;-65
2022/01/18 13:46:36;;;;;;;46.88;20.75;;;;;;;10.09;96.26;102736.22;8337819;28;20574;-65
2022/01/18 13:50:56;;;;;;;47.05;19.02;;;;;;;10.02;96.57;102729.38;8321677;28;20398;-65
2022/01/18 13:54:56;;;;;;;49.58;19.85;;;;;;;10.03;97.79;102736.50;8327560;28;20053;-65
2022/01/18 13:59:03;;;;;;;44.35;20.80;;;;;;;9.98;97.14;102730.50;8323529;28;20037;-65
2022/01/18 14:03:04;;;;;;;43.42;19.55;;;;;;;9.93;96.76;102729.88;8324572;28;20429;-65
2022/01/18 14:07:05;;;;;;;49.38;20.98;;;;;;;9.95;96.99;102706.34;8319638;28;20034;-65
2022/01/18 14:11:08;;;;;;;49.03;19.35;;;;;;;9.90;96.53;102708.41;8339774;28;20048;-65
2022/01/18 14:15:11;;;;;;;48.60;19.70;;;;;;;10.04;96.39;102705.84;8334275;28;20076;-65
2022/01/18 14:19:11;;;;;;;52.22;20.40;;;;;;;9.98;96.55;102700.78;8336168;28;20049;-65
2022/01/18 14:23:21;;;;;;;50.33;19.17;;;;;;;10.01;94.91;102697.91;8334698;28;20042;-65
2022/01/18 14:27:25;;;;;;;43.30;18.50;;;;;;;9.98;95.46;102698.06;8335733;28;20036;-65
2022/01/18 14:31:25;;;;;;;40.30;18.98;;;;;;;9.88;96.14;102692.28;8323672;28;20445;-65
2022/01/18 14:35:27;;;;;;;45.85;18.83;;;;;;;9.92;95.61;102701.09;8306243;28;20057;-65
2022/01/18 14:39:28;;;;;;;46.05;19.55;;;;;;;9.88;97.17;102694.09;8313154;28;20218;-65
2022/01/18 14:43:31;;;;;;;55.35;20.80;;;;;;;9.90;97.90;102692.19;8317002;28;20053;-65
2022/01/18 14:47:33;;;;;;;40.67;16.75;;;;;;;9.97;95.08;102693.59;8309485;28;20049;-65
2022/01/18 14:51:33;;;;;;;37.20;16.95;;;;;;;9.79;97.02;102700.88;8320413;28;20444;-65
2022/01/18 14:55:35;;;;;;;41.70;18.45;;;;;;;9.88;97.27;102694.09;8312861;28;20111;-65
2022/01/18 14:59:35;;;;;;;50.72;19.67;;;;;;;9.84;97.83;102687.13;8312292;28;20029;-65
2022/01/18 15:03:35;;;;;;;46.22;17.95;;;;;;;9.84;97.85;102684.44;8316970;28;20584;-65
2022/01/18 15:07:38;;;;;;;52.13;18.48;;;;;;;9.73;99.18;102690.41;8314044;28;20507;-65
2022/01/18 15:11:38;;;;;;;49.42;18.80;;;;;;;9.74;99.22;102678.66;8323223;28;20095;-65
2022/01/18 15:15:39;;;;;;;58.42;21.20;;;;;;;9.71;99.88;102664.44;8324847;28;20089;-65
2022/01/18 15:19:39;;;;;;;47.03;17.33;;;;;;;9.69;98.64;102671.75;8309811;28;20037;-65
2022/01/18 15:23:39;;;;;;;46.78;16.20;;;;;;;9.62;99.19;102646.03;8306498;28;20048;-65
2022/01/18 15:27:40;;;;;;;47.65;16.48;;;;;;;9.59;99.60;102648.88;8308737;28;20041;-65
2022/01/18 15:31:41;;;;;;;37.95;16.20;;;;;;;9.53;99.61;102649.22;8320179;28;20490;-65
2022/01/18 15:35:41;;;;;;;37.47;15.57;;;;;;;9.47;100.00;102644.16;8321257;28;20588;-65
2022/01/18 15:39:47;;;;;;;36.67;15.50;;;;;;;9.50;100.00;102643.97;8332936;28;20044;-65
2022/01/18 15:43:47;;;;;;;55.17;15.82;;;;;;;9.55;100.00;102650.03;8317549;28;20459;-65
2022/01/18 15:47:48;;;;;;;44.00;16.45;;;;;;;9.53;100.00;102649.22;8316360;28;20029;-65
2022/01/18 15:51:49;;;;;;;39.00;15.82;;;;;;;9.51;99.96;102652.00;8320502;28;20050;-65
2022/01/18 15:55:49;;;;;;;42.40;16.48;;;;;;;9.50;100.00;102649.38;8323501;28;20052;-65
2022/01/18 15:59:51;;;;;;;53.38;17.55;;;;;;;9.44;100.00;102638.91;8324478;28;20029;-65
2022/01/18 16:03:53;;;;;;;45.85;19.13;;;;;;;9.37;100.00;102640.19;8333256;28;20051;-65
2022/01/18 16:07:56;;;;;;;45.97;18.45;;;;;;;9.33;100.00;102646.72;8308099;28;20116;-65
2022/01/18 16:11:57;;;;;;;46.13;20.60;;;;;;;9.34;100.00;102653.84;8325162;28;20132;-65
2022/01/18 16:16:00;;;;;;;49.33;21.10;;;;;;;9.30;100.00;102646.88;8321194;28;20057;-65
2022/01/18 16:20:01;;;;;;;55.38;20.33;;;;;;;9.26;100.00;102647.97;8313693;28;20116;-65
2022/01/18 16:24:03;;;;;;;55.40;19.67;;;;;;;9.30;100.00;102646.88;8323322;28;20112;-65
2022/01/18 16:28:03;;;;;;;59.20;19.45;;;;;;;9.26;100.00;102643.47;8320686;28;20045;-65
2022/01/18 16:32:05;;;;;;;50.10;18.88;;;;;;;9.24;100.00;102647.19;8323770;28;20064;-65
2022/01/18 16:36:05;;;;;;;46.17;18.70;;;;;;;9.25;100.00;102644.41;8318542;28;20405;-65
2022/01/18 16:40:10;;;;;;;57.28;20.73;;;;;;;9.21;100.00;102647.34;8320195;28;20037;-65
2022/01/18 16:44:11;;;;;;;51.92;20.63;;;;;;;9.13;100.00;102645.06;8335820;28;20090;-65
2022/01/18 16:48:11;;;;;;;47.75;20.08;;;;;;;9.07;100.00;102645.38;8332965;28;20068;-65
2022/01/18 16:52:12;;;;;;;54.80;24.80;;;;;;;9.13;100.00;102636.06;8333142;28;20521;-65
2022/01/18 16:56:14;;;;;;;57.95;24.27;;;;;;;9.15;100.00;102636.88;8331855;28;20463;-65
2022/01/18 17:00:16;;;;;;;65.60;24.02;;;;;;;9.12;100.00;102628.94;8333606;28;20049;-65
2022/01/18 17:04:16;;;;;;;54.83;22.83;;;;;;;9.12;100.00;102637.03;8322501;28;20050;-65
2022/01/18 17:08:17;;;;;;;54.17;21.25;;;;;;;9.10;100.00;102634.41;8308516;28;20126;-65
2022/01/18 17:12:17;;;;;;;45.97;20.67;;;;;;;9.03;99.76;102626.72;8310566;28;20063;-65
2022/01/18 17:16:18;;;;;;;50.10;20.50;;;;;;;8.99;100.00;102642.19;8313104;28;20446;-65
2022/01/18 17:20:18;;;;;;;54.90;21.33;;;;;;;8.93;100.00;102637.09;8309601;28;20046;-65
2022/01/18 17:24:19;;;;;;;50.22;20.95;;;;;;;8.91;100.00;102632.75;8319291;28;20033;-65
2022/01/18 17:28:19;;;;;;;38.85;19.33;;;;;;;8.94;96.24;102632.59;8332064;28;20043;-65
2022/01/18 17:32:20;;;;;;;32.72;14.43;;;;;;;9.02;91.34;102630.34;8329417;28;20041;-65
2022/01/18 17:36:20;;;;;;;35.95;14.38;;;;;;;9.17;87.83;102634.97;8334044;28;20041;-65
2022/01/18 17:40:21;;;;;;;27.90;13.35;;;;;;;9.21;87.49;102632.00;8333452;28;20129;-65
2022/01/18 17:44:21;;;;;;;34.60;14.90;;;;;;;9.15;88.57;102631.50;8316311;28;20067;-65
2022/01/18 17:48:22;;;;;;;33.40;14.88;;;;;;;9.12;87.85;102620.84;8330815;28;20115;-65
2022/01/18 17:52:23;;;;;;;31.88;14.85;;;;;;;9.02;89.59;102614.16;8332811;28;20037;-65
2022/01/18 17:56:24;;;;;;;32.78;11.23;;;;;;;9.08;85.24;102605.75;8323734;28;20045;-65
2022/01/18 18:00:25;;;;;;;28.27;12.75;;;;;;;8.95;86.82;102607.34;8330593;28;20492;-65
2022/01/18 18:04:26;;;;;;;20.77;10.77;;;;;;;8.82;87.43;102603.53;8294194;28;20129;-65
2022/01/18 18:08:26;;;;;;;19.77;9.55;;;;;;;8.77;86.48;102600.19;8311213;28;20128;-65
2022/01/18 18:12:27;;;;;;;18.58;9.20;;;;;;;8.77;85.38;102597.50;8327129;28;20046;-65
2022/01/18 18:16:27;;;;;;;16.25;8.48;;;;;;;8.81;85.17;102589.19;8314085;28;20037;-65
2022/01/18 18:20:30;;;;;;;17.73;9.55;;;;;;;8.83;85.00;102591.78;8311889;28;20561;-65
2022/01/18 18:24:31;;;;;;;24.30;9.63;;;;;;;8.80;85.49;102600.03;8327415;28;20057;-65
2022/01/18 18:28:32;;;;;;;22.00;8.48;;;;;;;8.78;85.85;102596.56;8327499;28;20040;-66
2022/01/18 18:32:32;;;;;;;25.40;8.18;;;;;;;8.85;85.08;102589.91;8328597;28;20049;-65
2022/01/18 18:36:33;;;;;;;17.02;9.13;;;;;;;8.79;86.14;102590.22;8332479;28;20260;-65
2022/01/18 18:40:43;;;;;;;21.83;10.02;;;;;;;8.72;86.58;102570.78;8328062;28;20046;-65
2022/01/18 18:44:44;;;;;;;28.98;11.25;;;;;;;8.81;85.73;102555.97;8326424;28;20049;-65
2022/01/18 18:48:45;;;;;;;28.65;13.00;;;;;;;8.74;85.96;102541.91;8310409;28;20145;-65
2022/01/18 18:52:46;;;;;;;28.02;12.82;;;;;;;8.61;87.37;102550.69;8329789;28;20439;-65
2022/01/18 18:56:46;;;;;;;25.95;11.93;;;;;;;8.55;87.37;102572.59;8332976;28;20060;-64
2022/01/18 19:00:50;;;;;;;27.95;10.82;;;;;;;8.57;87.22;102578.78;8321324;28;20445;-65
2022/01/18 19:04:50;;;;;;;27.43;12.13;;;;;;;8.52;87.38;102576.31;8310068;28;20124;-65
2022/01/18 19:08:51;;;;;;;30.20;12.25;;;;;;;8.45;87.65;102579.41;8321872;28;20133;-65
2022/01/18 19:12:55;;;;;;;26.92;10.55;;;;;;;8.42;87.21;102579.53;8302962;28;20485;-65
2022/01/18 19:16:56;;;;;;;23.20;11.20;;;;;;;8.40;87.47;102570.66;8315570;28;20421;-65